Time;durP1;ratioP1;P1;durP2;ratioP2;P2;SDS_P1;SDS_P2;PMS_P1;PMS_P2;Temp;Humidity;BMP_temperature;BMP_pressure;BME280_temperature;BME280_humidity;BME280_pressure;Samples;Min_cycle;Max_cycle;Signal;HPM_P1;HPM_P2
2021/05/22 00:00:34;;;;;;;2.78;1.10;;;;;;;;;;6195791;28;20129;-68
2021/05/22 00:03:35;;;;;;;4.53;1.13;;;;;;;;;;6197695;28;20120;-69
2021/05/22 00:06:36;;;;;;;3.78;1.30;;;;;;;;;;6185120;28;20061;-69
2021/05/22 00:09:37;;;;;;;5.57;1.50;;;;;;;;;;6187900;28;20513;-68
2021/05/22 00:12:38;;;;;;;4.00;1.30;;;;;;;;;;6196759;28;20046;-66
2021/05/22 00:15:40;;;;;;;3.83;1.67;;;;;;;;;;6189099;28;20046;-69
2021/05/22 00:18:41;;;;;;;4.70;1.80;;;;;;;;;;6193568;28;20050;-69
2021/05/22 00:21:42;;;;;;;5.07;1.52;;;;;;;;;;6191734;28;20141;-67
2021/05/22 00:24:43;;;;;;;3.60;1.52;;;;;;;;;;6190094;28;20052;-68
2021/05/22 00:27:44;;;;;;;3.90;1.60;;;;;;;;;;6186198;28;20173;-70
2021/05/22 00:30:46;;;;;;;5.10;1.60;;;;;;;;;;6193093;28;20058;-67
2021/05/22 00:33:47;;;;;;;5.90;1.67;;;;;;;;;;6193264;28;20366;-67
2021/05/22 00:36:48;;;;;;;5.82;2.80;;;;;;;;;;6192800;28;20177;-67
2021/05/22 00:39:50;;;;;;;4.25;2.03;;;;;;;;;;6189996;28;20054;-69
2021/05/22 00:42:51;;;;;;;4.93;2.25;;;;;;;;;;6195740;28;20142;-67
2021/05/22 00:45:55;;;;;;;2.63;1.48;;;;;;;;;;6193234;28;20651;-68
2021/05/22 00:48:56;;;;;;;4.47;2.00;;;;;;;;;;6185491;28;20049;-68
2021/05/22 00:51:57;;;;;;;6.40;2.15;;;;;;;;;;6180501;28;20139;-70
2021/05/22 00:54:58;;;;;;;6.38;2.03;;;;;;;;;;6188150;28;20125;-68
2021/05/22 00:57:59;;;;;;;4.68;1.67;;;;;;;;;;6182548;28;20039;-67
2021/05/22 01:01:01;;;;;;;5.75;1.75;;;;;;;;;;6191117;28;20100;-69
2021/05/22 01:04:02;;;;;;;4.50;1.50;;;;;;;;;;6199086;23;20042;-70
2021/05/22 01:07:03;;;;;;;4.32;1.73;;;;;;;;;;6180002;28;20085;-71
2021/05/22 01:10:06;;;;;;;7.20;1.88;;;;;;;;;;6182391;28;20097;-71
2021/05/22 01:13:07;;;;;;;4.75;1.65;;;;;;;;;;6189785;28;20053;-69
2021/05/22 01:16:11;;;;;;;3.53;2.03;;;;;;;;;;6193507;28;20046;-69
2021/05/22 01:19:17;;;;;;;4.90;2.03;;;;;;;;;;6190956;28;20054;-69
2021/05/22 01:22:18;;;;;;;6.15;2.63;;;;;;;;;;6186294;28;20074;-69
2021/05/22 01:25:26;;;;;;;6.18;2.60;;;;;;;;;;6190080;28;20050;-69
2021/05/22 01:28:27;;;;;;;5.82;2.38;;;;;;;;;;6190888;28;20159;-69
2021/05/22 01:31:28;;;;;;;9.60;2.35;;;;;;;;;;6189010;28;20046;-69
2021/05/22 01:34:30;;;;;;;4.63;2.50;;;;;;;;;;6191451;28;20046;-69
2021/05/22 01:37:31;;;;;;;5.75;2.53;;;;;;;;;;6189023;28;20533;-71
2021/05/22 01:40:33;;;;;;;7.15;2.85;;;;;;;;;;6190425;28;20057;-70
2021/05/22 01:43:34;;;;;;;8.23;2.80;;;;;;;;;;6189915;28;20498;-71
2021/05/22 01:46:37;;;;;;;6.50;2.67;;;;;;;;;;6188076;28;20109;-69
2021/05/22 01:49:38;;;;;;;7.10;2.60;;;;;;;;;;6186314;28;20061;-72
2021/05/22 01:52:41;;;;;;;5.15;2.67;;;;;;;;;;6188007;28;20144;-73
2021/05/22 01:55:45;;;;;;;4.65;2.63;;;;;;;;;;6183351;28;20133;-70
2021/05/22 01:58:46;;;;;;;;;;;;;;;;;;6186416;28;20061;-69
2021/05/22 02:01:48;;;;;;;7.95;3.05;;;;;;;;;;6186548;28;19930;-67
2021/05/22 02:04:50;;;;;;;8.80;3.33;;;;;;;;;;6184069;28;20062;-69
2021/05/22 02:07:52;;;;;;;3.80;2.58;;;;;;;;;;6186022;28;20046;-68
2021/05/22 02:10:55;;;;;;;9.68;3.15;;;;;;;;;;6185087;28;20646;-69
2021/05/22 02:13:57;;;;;;;7.45;3.08;;;;;;;;;;6183759;28;20051;-68
2021/05/22 02:16:58;;;;;;;4.47;2.67;;;;;;;;;;6184076;28;20046;-68
2021/05/22 02:20:00;;;;;;;6.68;2.83;;;;;;;;;;6184118;28;20470;-70
2021/05/22 02:23:02;;;;;;;4.65;2.70;;;;;;;;;;6185049;28;20089;-69
2021/05/22 02:26:04;;;;;;;6.45;2.85;;;;;;;;;;6184135;28;20050;-68
2021/05/22 02:29:06;;;;;;;4.35;2.75;;;;;;;;;;6183317;28;20046;-70
2021/05/22 02:32:08;;;;;;;6.43;2.90;;;;;;;;;;6184641;28;20046;-67
2021/05/22 02:35:11;;;;;;;10.00;2.97;;;;;;;;;;6180058;28;20628;-68
2021/05/22 02:38:15;;;;;;;5.95;2.70;;;;;;;;;;6184690;28;20046;-68
2021/05/22 02:41:17;;;;;;;6.65;3.15;;;;;;;;;;6182817;28;20198;-69
2021/05/22 02:44:19;;;;;;;5.72;2.75;;;;;;;;;;6182963;28;20648;-70
2021/05/22 02:47:21;;;;;;;6.05;2.75;;;;;;;;;;6186299;28;20589;-69
2021/05/22 02:50:23;;;;;;;8.13;2.80;;;;;;;;;;6185173;28;20133;-70
2021/05/22 02:53:26;;;;;;;5.57;2.80;;;;;;;;;;6184144;28;20704;-71
2021/05/22 02:56:29;;;;;;;5.35;2.97;;;;;;;;;;6183278;28;20137;-71
2021/05/22 02:59:30;;;;;;;6.03;2.75;;;;;;;;;;6186105;28;20497;-72
2021/05/22 03:02:32;;;;;;;5.78;2.53;;;;;;;;;;6186996;28;20129;-70
2021/05/22 03:05:33;;;;;;;5.38;2.80;;;;;;;;;;6188812;28;20062;-69
2021/05/22 03:08:45;;;;;;;4.60;2.47;;;;;;;;;;6185894;28;20126;-70
2021/05/22 03:11:47;;;;;;;9.52;2.78;;;;;;;;;;6187625;28;20092;-69
2021/05/22 03:14:48;;;;;;;4.07;2.30;;;;;;;;;;6188752;28;20141;-69
2021/05/22 03:17:49;;;;;;;8.57;2.20;;;;;;;;;;6192627;28;20188;-70
2021/05/22 03:20:50;;;;;;;8.60;2.50;;;;;;;;;;6189034;28;20137;-70
2021/05/22 03:23:52;;;;;;;3.40;2.10;;;;;;;;;;6190799;28;20074;-70
2021/05/22 03:26:54;;;;;;;3.00;1.95;;;;;;;;;;6191432;28;20050;-70
2021/05/22 03:29:56;;;;;;;4.85;1.65;;;;;;;;;;6187424;28;20051;-70
2021/05/22 03:32:57;;;;;;;5.63;2.17;;;;;;;;;;6187711;28;20141;-70
2021/05/22 03:35:58;;;;;;;4.72;2.25;;;;;;;;;;6188453;28;20550;-71
2021/05/22 03:39:00;;;;;;;5.65;2.08;;;;;;;;;;6186700;28;20054;-71
2021/05/22 03:42:02;;;;;;;4.93;2.03;;;;;;;;;;6185417;28;20090;-71
2021/05/22 03:45:04;;;;;;;6.32;2.65;;;;;;;;;;6180426;28;20100;-69
2021/05/22 03:48:05;;;;;;;5.10;2.00;;;;;;;;;;6185187;28;20128;-69
2021/05/22 03:51:06;;;;;;;5.80;2.38;;;;;;;;;;6188075;28;20050;-69
2021/05/22 03:54:08;;;;;;;5.70;2.60;;;;;;;;;;6187036;28;20057;-69
2021/05/22 03:57:10;;;;;;;5.20;2.95;;;;;;;;;;6186160;28;20524;-69
2021/05/22 04:00:12;;;;;;;8.13;3.20;;;;;;;;;;6186143;28;20117;-69
2021/05/22 04:03:13;;;;;;;6.43;3.15;;;;;;;;;;6194374;28;20066;-69
2021/05/22 04:06:15;;;;;;;5.28;2.97;;;;;;;;;;6195756;28;20057;-69
2021/05/22 04:09:17;;;;;;;5.13;3.25;;;;;;;;;;6193071;28;20422;-69
2021/05/22 04:12:19;;;;;;;7.05;3.30;;;;;;;;;;6191406;28;20058;-69
2021/05/22 04:15:21;;;;;;;6.50;3.10;;;;;;;;;;6190615;28;20050;-69
2021/05/22 04:18:22;;;;;;;5.10;3.28;;;;;;;;;;6188442;28;20646;-70
2021/05/22 04:21:23;;;;;;;5.30;3.03;;;;;;;;;;6188190;28;20768;-68
2021/05/22 04:24:24;;;;;;;5.82;2.88;;;;;;;;;;6189636;28;20119;-68
2021/05/22 04:27:26;;;;;;;4.22;2.75;;;;;;;;;;6191216;28;20042;-68
2021/05/22 04:30:27;;;;;;;6.18;3.10;;;;;;;;;;6192763;28;20077;-68
2021/05/22 04:33:28;;;;;;;3.25;2.10;;;;;;;;;;6189801;28;20050;-68
2021/05/22 04:36:30;;;;;;;4.55;2.10;;;;;;;;;;6192835;28;20759;-68
2021/05/22 04:39:31;;;;;;;3.85;1.92;;;;;;;;;;6191294;28;20226;-68
2021/05/22 04:42:33;;;;;;;3.28;2.00;;;;;;;;;;6190733;28;20057;-69
2021/05/22 04:45:34;;;;;;;4.53;1.60;;;;;;;;;;6191347;28;20085;-68
2021/05/22 04:48:35;;;;;;;4.03;1.88;;;;;;;;;;6189361;28;20625;-68
2021/05/22 04:51:37;;;;;;;3.92;1.73;;;;;;;;;;6190755;28;20189;-68
2021/05/22 04:54:38;;;;;;;4.28;1.88;;;;;;;;;;6193890;28;20054;-69
2021/05/22 04:57:40;;;;;;;3.08;1.60;;;;;;;;;;6193448;28;20078;-68
2021/05/22 05:00:41;;;;;;;2.45;1.45;;;;;;;;;;6190119;28;20126;-68
2021/05/22 05:03:42;;;;;;;2.42;1.85;;;;;;;;;;6186985;28;20133;-71
2021/05/22 05:06:43;;;;;;;3.33;1.60;;;;;;;;;;6185608;28;20050;-68
2021/05/22 05:09:45;;;;;;;2.80;1.50;;;;;;;;;;6191835;28;20530;-74
2021/05/22 05:12:47;;;;;;;3.72;1.48;;;;;;;;;;6190709;28;20109;-71
2021/05/22 05:15:48;;;;;;;4.45;1.50;;;;;;;;;;6190689;28;21020;-71
2021/05/22 05:18:50;;;;;;;4.53;1.33;;;;;;;;;;6192280;28;20473;-70
2021/05/22 05:21:53;;;;;;;3.10;1.40;;;;;;;;;;6189218;28;20177;-70
2021/05/22 05:24:54;;;;;;;2.83;1.23;;;;;;;;;;6189770;28;20065;-71
2021/05/22 05:27:56;;;;;;;2.05;1.55;;;;;;;;;;6197771;28;20505;-71
2021/05/22 05:30:57;;;;;;;3.00;1.17;;;;;;;;;;6191274;28;20053;-70
2021/05/22 05:33:58;;;;;;;1.63;1.13;;;;;;;;;;6190450;28;20094;-70
2021/05/22 05:36:59;;;;;;;2.88;1.00;;;;;;;;;;6186697;28;20042;-70
2021/05/22 05:40:00;;;;;;;2.97;1.02;;;;;;;;;;6183904;28;20453;-70
2021/05/22 05:43:03;;;;;;;4.43;1.55;;;;;;;;;;6186398;28;20129;-71
2021/05/22 05:46:04;;;;;;;5.82;1.65;;;;;;;;;;6192012;28;20406;-70
2021/05/22 05:49:05;;;;;;;4.00;1.20;;;;;;;;;;6191091;28;20086;-69
2021/05/22 05:52:07;;;;;;;5.20;1.50;;;;;;;;;;6189335;28;20066;-69
2021/05/22 05:55:08;;;;;;;2.90;1.33;;;;;;;;;;6189490;28;20147;-69
2021/05/22 05:58:10;;;;;;;3.45;1.20;;;;;;;;;;6186597;28;20050;-69
2021/05/22 06:01:13;;;;;;;4.65;1.45;;;;;;;;;;6188450;28;20145;-69
2021/05/22 06:04:15;;;;;;;3.92;1.05;;;;;;;;;;6186597;28;20117;-69
2021/05/22 06:07:16;;;;;;;4.05;1.30;;;;;;;;;;6190170;28;20050;-69
2021/05/22 06:10:17;;;;;;;3.00;1.30;;;;;;;;;;6187324;28;20074;-69
2021/05/22 06:13:26;;;;;;;6.40;1.50;;;;;;;;;;6192985;28;20150;-69
2021/05/22 06:16:30;;;;;;;4.22;1.45;;;;;;;;;;6189905;28;20117;-72
2021/05/22 06:19:31;;;;;;;4.38;1.13;;;;;;;;;;6184489;28;20046;-69
2021/05/22 06:22:32;;;;;;;2.78;1.58;;;;;;;;;;6186268;28;20066;-69
2021/05/22 06:25:33;;;;;;;3.55;1.13;;;;;;;;;;6188756;28;20065;-69
2021/05/22 06:28:35;;;;;;;2.40;1.38;;;;;;;;;;6191828;28;20116;-69
2021/05/22 06:31:36;;;;;;;3.35;1.33;;;;;;;;;;6189523;28;20149;-70
2021/05/22 06:34:37;;;;;;;2.70;1.63;;;;;;;;;;6182938;28;21185;-69
2021/05/22 06:37:38;;;;;;;2.35;1.30;;;;;;;;;;6184680;28;20062;-69
2021/05/22 06:40:39;;;;;;;3.40;1.48;;;;;;;;;;6187417;28;20133;-69
2021/05/22 06:43:42;;;;;;;3.88;1.92;;;;;;;;;;6186240;28;20210;-70
2021/05/22 06:46:48;;;;;;;4.03;1.42;;;;;;;;;;6175825;28;20050;-70
2021/05/22 06:49:50;;;;;;;2.35;1.50;;;;;;;;;;6176013;28;20472;-70
2021/05/22 06:52:51;;;;;;;6.85;1.77;;;;;;;;;;6182504;28;20049;-69
2021/05/22 06:55:52;;;;;;;3.00;1.70;;;;;;;;;;6186763;28;20474;-72
2021/05/22 06:58:54;;;;;;;6.03;1.77;;;;;;;;;;6186485;28;20864;-70
2021/05/22 07:01:55;;;;;;;3.05;1.65;;;;;;;;;;6187891;28;20137;-70
2021/05/22 07:04:56;;;;;;;3.45;2.03;;;;;;;;;;6191924;28;20124;-69
2021/05/22 07:07:59;;;;;;;4.20;1.70;;;;;;;;;;6189857;28;20379;-69
2021/05/22 07:11:00;;;;;;;3.93;1.73;;;;;;;;;;6188218;28;20042;-69
2021/05/22 07:14:03;;;;;;;4.10;1.65;;;;;;;;;;6184234;28;20053;-69
2021/05/22 07:17:04;;;;;;;4.50;2.17;;;;;;;;;;6186637;28;20130;-69
2021/05/22 07:20:06;;;;;;;6.70;2.00;;;;;;;;;;6188785;28;20081;-72
2021/05/22 07:23:07;;;;;;;6.32;2.15;;;;;;;;;;6191302;28;20043;-70
2021/05/22 07:26:08;;;;;;;5.93;1.95;;;;;;;;;;6188375;28;20125;-70
2021/05/22 07:29:11;;;;;;;5.13;2.20;;;;;;;;;;6193882;28;20049;-69
2021/05/22 07:32:12;;;;;;;3.85;1.90;;;;;;;;;;6189564;28;20061;-71
2021/05/22 07:35:14;;;;;;;3.67;1.70;;;;;;;;;;6183128;28;20058;-69
2021/05/22 07:38:15;;;;;;;6.55;2.30;;;;;;;;;;6185701;28;20140;-68
2021/05/22 07:41:16;;;;;;;5.32;1.98;;;;;;;;;;6184878;28;20134;-69
2021/05/22 07:44:18;;;;;;;4.40;1.85;;;;;;;;;;6183929;28;20054;-73
2021/05/22 07:47:20;;;;;;;6.80;1.70;;;;;;;;;;6186820;28;20173;-69
2021/05/22 07:50:21;;;;;;;4.60;1.60;;;;;;;;;;6190636;28;22395;-69
2021/05/22 07:53:22;;;;;;;4.10;2.10;;;;;;;;;;6185256;28;20054;-70
2021/05/22 07:56:23;;;;;;;7.85;1.88;;;;;;;;;;6183329;28;20487;-68
2021/05/22 07:59:25;;;;;;;5.22;1.80;;;;;;;;;;6183883;28;20042;-68
2021/05/22 08:02:26;;;;;;;5.05;1.77;;;;;;;;;;6187016;28;20145;-69
2021/05/22 08:05:27;;;;;;;3.90;1.70;;;;;;;;;;6189100;28;20101;-69
2021/05/22 08:08:28;;;;;;;4.55;1.48;;;;;;;;;;6187799;28;20161;-69
2021/05/22 08:11:29;;;;;;;6.20;1.95;;;;;;;;;;6190442;28;20089;-70
2021/05/22 08:14:31;;;;;;;5.50;2.38;;;;;;;;;;6189767;28;20173;-69
2021/05/22 08:17:32;;;;;;;4.50;1.88;;;;;;;;;;6187299;28;20057;-69
2021/05/22 08:20:33;;;;;;;3.50;1.73;;;;;;;;;;6188257;28;20085;-69
2021/05/22 08:23:34;;;;;;;2.67;1.42;;;;;;;;;;6194410;28;20137;-69
2021/05/22 08:26:37;;;;;;;3.50;1.65;;;;;;;;;;6191433;28;20054;-70
2021/05/22 08:29:39;;;;;;;3.80;1.80;;;;;;;;;;6191897;28;20398;-70
2021/05/22 08:32:40;;;;;;;4.20;1.70;;;;;;;;;;6191323;28;20045;-69
2021/05/22 08:35:41;;;;;;;4.63;1.90;;;;;;;;;;6190710;28;20582;-69
2021/05/22 08:38:43;;;;;;;4.18;2.05;;;;;;;;;;6190640;28;20055;-69
2021/05/22 08:41:45;;;;;;;6.55;2.35;;;;;;;;;;6184935;28;20474;-70
2021/05/22 08:44:47;;;;;;;4.15;1.70;;;;;;;;;;6187559;28;20637;-69
2021/05/22 08:47:49;;;;;;;5.97;1.95;;;;;;;;;;6189922;28;20064;-69
2021/05/22 08:50:50;;;;;;;9.70;2.22;;;;;;;;;;6189487;28;20050;-72
2021/05/22 08:53:51;;;;;;;4.75;1.70;;;;;;;;;;6188844;28;20054;-70
2021/05/22 08:56:52;;;;;;;2.35;1.60;;;;;;;;;;6188836;28;20046;-71
2021/05/22 08:59:54;;;;;;;4.20;1.95;;;;;;;;;;6190050;28;20084;-70
2021/05/22 09:02:55;;;;;;;4.35;1.90;;;;;;;;;;6191272;28;20048;-71
2021/05/22 09:05:56;;;;;;;3.42;1.58;;;;;;;;;;6191415;28;20161;-71
2021/05/22 09:09:02;;;;;;;5.05;1.77;;;;;;;;;;6192417;28;20390;-69
2021/05/22 09:12:03;;;;;;;4.50;1.30;;;;;;;;;;6186617;28;20476;-71
2021/05/22 09:15:09;;;;;;;6.63;1.80;;;;;;;;;;6185475;28;20130;-70
2021/05/22 09:18:13;;;;;;;5.57;2.10;;;;;;;;;;6184419;28;20057;-71
2021/05/22 09:21:15;;;;;;;4.65;1.80;;;;;;;;;;6189396;28;20104;-69
2021/05/22 09:24:16;;;;;;;3.90;1.50;;;;;;;;;;6188926;28;20150;-70
2021/05/22 09:27:18;;;;;;;5.97;1.60;;;;;;;;;;6186713;28;20232;-70
2021/05/22 09:30:22;;;;;;;4.40;1.70;;;;;;;;;;6189149;28;20072;-70
2021/05/22 09:33:25;;;;;;;4.75;1.65;;;;;;;;;;6190474;28;20073;-70
2021/05/22 09:36:26;;;;;;;5.78;1.80;;;;;;;;;;6189810;28;20381;-71
2021/05/22 09:39:27;;;;;;;5.68;1.95;;;;;;;;;;6189315;28;20256;-71
2021/05/22 09:42:29;;;;;;;5.65;1.80;;;;;;;;;;6187519;28;20103;-71
2021/05/22 09:45:34;;;;;;;3.65;1.83;;;;;;;;;;6189966;28;20050;-71
2021/05/22 09:48:36;;;;;;;5.10;1.65;;;;;;;;;;6196876;28;20129;-71
2021/05/22 09:51:55;;;;;;;5.50;1.70;;;;;;;;;;6192652;28;20046;-70
2021/05/22 09:54:58;;;;;;;6.22;1.73;;;;;;;;;;6180176;28;20145;-71
2021/05/22 09:57:59;;;;;;;6.88;1.85;;;;;;;;;;6183271;28;20129;-71
2021/05/22 10:01:01;;;;;;;4.03;1.60;;;;;;;;;;6188141;28;20141;-71
2021/05/22 10:04:16;;;;;;;3.55;1.55;;;;;;;;;;6187185;28;20796;-71
2021/05/22 10:07:35;;;;;;;4.35;1.35;;;;;;;;;;6195118;28;20142;-71
2021/05/22 10:10:41;;;;;;;4.25;1.48;;;;;;;;;;6187027;28;20568;-71
2021/05/22 10:13:43;;;;;;;3.38;1.63;;;;;;;;;;6189551;28;20057;-70
2021/05/22 10:16:44;;;;;;;4.28;1.63;;;;;;;;;;6188910;28;20046;-71
2021/05/22 10:19:46;;;;;;;5.90;1.80;;;;;;;;;;6188013;28;20129;-71
2021/05/22 10:22:48;;;;;;;5.47;1.60;;;;;;;;;;6189526;28;20563;-71
2021/05/22 10:25:49;;;;;;;5.47;2.28;;;;;;;;;;6193347;28;20128;-70
2021/05/22 10:28:51;;;;;;;3.75;1.92;;;;;;;;;;6192736;28;20497;-70
2021/05/22 10:31:53;;;;;;;8.13;2.17;;;;;;;;;;6194124;28;20090;-70
2021/05/22 10:34:55;;;;;;;4.65;1.98;;;;;;;;;;6192644;28;20129;-70
2021/05/22 10:37:57;;;;;;;5.22;2.08;;;;;;;;;;6193668;28;20486;-71
2021/05/22 10:40:59;;;;;;;4.72;1.70;;;;;;;;;;6186902;28;20061;-71
2021/05/22 10:44:01;;;;;;;5.65;1.92;;;;;;;;;;6190746;28;20129;-71
2021/05/22 10:47:09;;;;;;;5.93;1.88;;;;;;;;;;6191133;28;20054;-71
2021/05/22 10:50:10;;;;;;;5.35;1.77;;;;;;;;;;6187193;28;20042;-71
2021/05/22 10:53:20;;;;;;;4.55;1.60;;;;;;;;;;6186990;28;20142;-73
2021/05/22 10:56:21;;;;;;;4.20;1.48;;;;;;;;;;6191480;28;20494;-69
2021/05/22 10:59:22;;;;;;;4.13;1.73;;;;;;;;;;6189581;28;20054;-69
2021/05/22 11:02:37;;;;;;;4.32;1.90;;;;;;;;;;6194671;28;20140;-68
2021/05/22 11:05:39;;;;;;;5.78;2.20;;;;;;;;;;6179020;28;20081;-69
2021/05/22 11:08:44;;;;;;;5.57;1.92;;;;;;;;;;6181049;28;20138;-70
2021/05/22 11:11:45;;;;;;;3.38;1.50;;;;;;;;;;6190075;28;20546;-68
2021/05/22 11:14:48;;;;;;;4.95;1.75;;;;;;;;;;6189258;28;20688;-69
2021/05/22 11:17:50;;;;;;;5.35;1.40;;;;;;;;;;6191680;28;20066;-67
2021/05/22 11:21:25;;;;;;;3.58;1.48;;;;;;;;;;6187752;28;21273;-68
2021/05/22 11:24:26;;;;;;;2.83;1.50;;;;;;;;;;6110804;29;20051;-67
2021/05/22 11:27:58;;;;;;;7.05;1.77;;;;;;;;;;6111874;29;20059;-69
2021/05/22 11:30:59;;;;;;;4.97;1.80;;;;;;;;;;6184375;28;20047;-72
2021/05/22 11:34:27;;;;;;;5.05;1.88;;;;;;;;;;6184728;28;20170;-70
2021/05/22 11:37:31;;;;;;;4.90;1.85;;;;;;;;;;6186479;28;20533;-71
2021/05/22 11:40:47;;;;;;;4.30;1.60;;;;;;;;;;6192329;28;20057;-71
2021/05/22 11:43:48;;;;;;;6.88;2.22;;;;;;;;;;6194560;28;20969;-72
2021/05/22 11:46:51;;;;;;;3.60;1.83;;;;;;;;;;6197349;28;20466;-70
2021/05/22 11:49:53;;;;;;;4.72;1.60;;;;;;;;;;6190985;28;20049;-72
2021/05/22 11:52:54;;;;;;;2.97;1.77;;;;;;;;;;6188005;28;20050;-70
2021/05/22 11:55:56;;;;;;;8.00;2.00;;;;;;;;;;6190928;28;20489;-71
2021/05/22 11:58:58;;;;;;;4.30;2.15;;;;;;;;;;6188276;28;20057;-71
2021/05/22 12:01:59;;;;;;;5.25;2.10;;;;;;;;;;6190223;28;20042;-72
2021/05/22 12:05:01;;;;;;;4.38;1.70;;;;;;;;;;6190625;28;20147;-70
2021/05/22 12:08:02;;;;;;;5.93;2.10;;;;;;;;;;6187708;28;20134;-70
2021/05/22 12:11:11;;;;;;;4.10;2.00;;;;;;;;;;6189109;28;20054;-69
2021/05/22 12:14:12;;;;;;;5.18;1.90;;;;;;;;;;6186607;28;20081;-71
2021/05/22 12:17:16;;;;;;;5.75;2.33;;;;;;;;;;6190800;28;20058;-72
2021/05/22 12:20:18;;;;;;;5.00;1.80;;;;;;;;;;6192241;28;20052;-71
2021/05/22 12:23:27;;;;;;;3.95;2.10;;;;;;;;;;6188322;28;20109;-73
2021/05/22 12:26:28;;;;;;;4.40;1.77;;;;;;;;;;6191238;28;20588;-71
2021/05/22 12:29:30;;;;;;;4.93;1.77;;;;;;;;;;6179406;28;20046;-70
2021/05/22 12:32:31;;;;;;;4.45;1.60;;;;;;;;;;6183592;28;20126;-70
2021/05/22 12:35:33;;;;;;;5.78;2.08;;;;;;;;;;6184353;28;20570;-70
2021/05/22 12:38:36;;;;;;;4.00;1.92;;;;;;;;;;6185454;28;20126;-70
2021/05/22 12:41:38;;;;;;;4.53;2.50;;;;;;;;;;6184043;28;20050;-71
2021/05/22 12:44:40;;;;;;;4.57;1.80;;;;;;;;;;6182925;28;20584;-70
2021/05/22 12:47:43;;;;;;;3.63;2.08;;;;;;;;;;6183780;28;20062;-70
2021/05/22 12:50:46;;;;;;;6.05;2.00;;;;;;;;;;6185843;28;20053;-72
2021/05/22 12:53:47;;;;;;;3.30;1.70;;;;;;;;;;6186927;28;20284;-70
2021/05/22 12:56:58;;;;;;;4.85;2.10;;;;;;;;;;6186600;28;20057;-70
2021/05/22 13:00:11;;;;;;;5.28;2.08;;;;;;;;;;6186940;28;20098;-70
2021/05/22 13:03:12;;;;;;;3.33;1.83;;;;;;;;;;6185980;28;20047;-73
2021/05/22 13:06:25;;;;;;;4.70;1.98;;;;;;;;;;6191617;28;20060;-69
2021/05/22 13:09:26;;;;;;;5.78;2.50;;;;;;;;;;6191567;28;20112;-69
2021/05/22 13:12:29;;;;;;;4.80;2.47;;;;;;;;;;6177136;28;20125;-69
2021/05/22 13:15:33;;;;;;;6.47;2.17;;;;;;;;;;6182766;28;20169;-70
2021/05/22 13:18:37;;;;;;;6.88;1.95;;;;;;;;;;6187303;28;20555;-70
2021/05/22 13:21:41;;;;;;;3.85;1.80;;;;;;;;;;6186261;28;20078;-70
2021/05/22 13:24:57;;;;;;;5.50;2.10;;;;;;;;;;6181706;28;20137;-70
2021/05/22 13:28:01;;;;;;;5.50;2.25;;;;;;;;;;6185794;28;20050;-70
2021/05/22 13:31:11;;;;;;;4.10;2.20;;;;;;;;;;6184357;28;20486;-70
2021/05/22 13:34:14;;;;;;;6.40;1.90;;;;;;;;;;6186191;28;20446;-69
2021/05/22 13:37:16;;;;;;;4.82;2.20;;;;;;;;;;6186791;28;20174;-70
2021/05/22 13:40:17;;;;;;;4.30;1.77;;;;;;;;;;6186401;28;20666;-70
2021/05/22 13:43:18;;;;;;;7.47;2.50;;;;;;;;;;6187238;28;20058;-69
2021/05/22 13:46:19;;;;;;;5.78;2.20;;;;;;;;;;6183469;28;20142;-69
2021/05/22 13:49:20;;;;;;;4.82;2.05;;;;;;;;;;6181861;28;20169;-72
2021/05/22 13:52:22;;;;;;;4.07;1.98;;;;;;;;;;6182014;28;20350;-71
2021/05/22 13:55:23;;;;;;;6.25;2.35;;;;;;;;;;6184375;28;20057;-71
2021/05/22 13:58:24;;;;;;;6.53;2.25;;;;;;;;;;6182860;28;20638;-68
2021/05/22 14:01:28;;;;;;;6.45;2.00;;;;;;;;;;6181802;28;20120;-69
2021/05/22 14:04:29;;;;;;;4.43;1.95;;;;;;;;;;6185336;28;20695;-68
2021/05/22 14:07:31;;;;;;;7.55;2.28;;;;;;;;;;6185603;28;20535;-68
2021/05/22 14:10:32;;;;;;;4.43;1.95;;;;;;;;;;6186602;28;20149;-68
2021/05/22 14:13:33;;;;;;;3.97;2.25;;;;;;;;;;6185553;28;20149;-68
2021/05/22 14:16:34;;;;;;;6.63;2.17;;;;;;;;;;6187335;28;20050;-68
2021/05/22 14:19:35;;;;;;;4.93;2.00;;;;;;;;;;6188654;28;20084;-68
2021/05/22 14:22:37;;;;;;;5.13;1.83;;;;;;;;;;6183338;28;20046;-68
2021/05/22 14:25:39;;;;;;;4.90;2.35;;;;;;;;;;6184057;28;20054;-69
2021/05/22 14:28:44;;;;;;;5.70;2.50;;;;;;;;;;6180946;28;20178;-69
2021/05/22 14:31:45;;;;;;;5.68;2.38;;;;;;;;;;6181272;28;20069;-68
2021/05/22 14:34:46;;;;;;;6.88;2.47;;;;;;;;;;6179566;28;20058;-69
2021/05/22 14:37:48;;;;;;;6.50;2.33;;;;;;;;;;6178401;28;20454;-70
2021/05/22 14:40:49;;;;;;;6.82;2.35;;;;;;;;;;6185463;28;20137;-68
2021/05/22 14:43:51;;;;;;;8.05;2.60;;;;;;;;;;6185070;28;20108;-68
2021/05/22 14:46:52;;;;;;;3.60;2.10;;;;;;;;;;6178098;28;20124;-68
2021/05/22 14:49:53;;;;;;;12.07;2.75;;;;;;;;;;6183079;28;20069;-70
2021/05/22 14:52:56;;;;;;;6.93;2.70;;;;;;;;;;6179908;28;20744;-68
2021/05/22 14:55:57;;;;;;;5.68;2.33;;;;;;;;;;6181755;28;20054;-68
2021/05/22 14:58:58;;;;;;;3.83;2.00;;;;;;;;;;6184295;28;20042;-68
2021/05/22 15:01:59;;;;;;;4.18;2.72;;;;;;;;;;6181934;28;20111;-68
2021/05/22 15:05:00;;;;;;;8.77;2.72;;;;;;;;;;6181635;28;20065;-68
2021/05/22 15:08:02;;;;;;;5.68;2.53;;;;;;;;;;6183256;28;20059;-69
2021/05/22 15:11:04;;;;;;;5.60;2.30;;;;;;;;;;6184590;28;20991;-68
2021/05/22 15:14:05;;;;;;;6.00;2.58;;;;;;;;;;6190887;28;20358;-68
2021/05/22 15:17:06;;;;;;;6.68;2.78;;;;;;;;;;6194143;28;20057;-67
2021/05/22 15:20:08;;;;;;;6.88;2.95;;;;;;;;;;6193182;28;20050;-68
2021/05/22 15:23:12;;;;;;;5.10;2.20;;;;;;;;;;6189075;28;20125;-68
2021/05/22 15:26:13;;;;;;;7.38;2.47;;;;;;;;;;6187613;28;20050;-70
2021/05/22 15:29:15;;;;;;;7.57;2.78;;;;;;;;;;6191198;28;20142;-68
2021/05/22 15:32:16;;;;;;;7.80;2.70;;;;;;;;;;6185911;28;20141;-70
2021/05/22 15:35:17;;;;;;;7.53;2.85;;;;;;;;;;6190574;28;20137;-68
2021/05/22 15:38:19;;;;;;;6.75;2.60;;;;;;;;;;6188222;28;20054;-68
2021/05/22 15:41:20;;;;;;;5.15;2.63;;;;;;;;;;6189385;28;20557;-69
2021/05/22 15:44:24;;;;;;;5.03;2.45;;;;;;;;;;6188763;28;20494;-68
2021/05/22 15:47:36;;;;;;;6.70;3.53;;;;;;;;;;6187858;28;20109;-70
2021/05/22 16:00:54;;;;;;;5.80;3.05;;;;;;;;;;6190132;28;20054;-70
2021/05/22 16:04:19;;;;;;;7.75;3.13;;;;;;;;;;6186995;28;20141;-71
2021/05/22 16:07:20;;;;;;;5.78;3.20;;;;;;;;;;6188160;28;20567;-69
2021/05/22 16:10:22;;;;;;;6.90;3.03;;;;;;;;;;6186985;28;20578;-70
2021/05/22 16:13:23;;;;;;;7.20;3.42;;;;;;;;;;6181826;28;20080;-69
2021/05/22 16:16:24;;;;;;;7.93;2.80;;;;;;;;;;6185711;28;20512;-69
2021/05/22 16:19:25;;;;;;;6.63;3.33;;;;;;;;;;6183456;28;20762;-69
2021/05/22 16:22:26;;;;;;;8.90;3.17;;;;;;;;;;6185370;28;20056;-70
2021/05/22 16:25:29;;;;;;;5.18;2.90;;;;;;;;;;6185217;28;20563;-69
2021/05/22 16:28:30;;;;;;;10.75;3.30;;;;;;;;;;6186433;28;20090;-70
2021/05/22 16:31:31;;;;;;;5.68;3.15;;;;;;;;;;6188283;28;20189;-69
2021/05/22 16:34:32;;;;;;;7.80;4.07;;;;;;;;;;6188908;28;20043;-70
2021/05/22 16:37:33;;;;;;;8.32;3.95;;;;;;;;;;6179338;28;20653;-69
2021/05/22 16:40:35;;;;;;;5.95;3.30;;;;;;;;;;6185516;28;20057;-69
2021/05/22 16:43:36;;;;;;;7.60;3.42;;;;;;;;;;6182673;28;20084;-69
2021/05/22 16:46:37;;;;;;;6.03;3.50;;;;;;;;;;6187894;28;20050;-70
2021/05/22 16:49:38;;;;;;;7.93;3.95;;;;;;;;;;6189255;28;20520;-70
2021/05/22 16:52:40;;;;;;;8.98;3.40;;;;;;;;;;6190149;28;20088;-69
2021/05/22 16:55:42;;;;;;;7.82;3.28;;;;;;;;;;6187745;28;20181;-69
2021/05/22 16:58:43;;;;;;;9.57;3.88;;;;;;;;;;6185888;28;20056;-69
2021/05/22 17:01:44;;;;;;;7.30;2.90;;;;;;;;;;6187934;28;20212;-69
2021/05/22 17:04:45;;;;;;;6.28;3.00;;;;;;;;;;6182493;28;20582;-69
2021/05/22 17:07:47;;;;;;;8.35;3.40;;;;;;;;;;6187521;28;20057;-69
2021/05/22 17:10:48;;;;;;;4.90;2.72;;;;;;;;;;6184608;28;20145;-69
2021/05/22 17:13:50;;;;;;;5.07;2.60;;;;;;;;;;6184389;28;20137;-68
2021/05/22 17:16:51;;;;;;;9.50;3.80;;;;;;;;;;6190016;28;20407;-69
2021/05/22 17:19:53;;;;;;;7.57;2.80;;;;;;;;;;6189675;28;20062;-68
2021/05/22 17:22:54;;;;;;;7.18;3.10;;;;;;;;;;6189146;28;20070;-69
2021/05/22 17:25:56;;;;;;;4.85;3.03;;;;;;;;;;6190849;28;20077;-69
2021/05/22 17:28:57;;;;;;;9.35;3.60;;;;;;;;;;6189321;28;20083;-68
2021/05/22 17:31:59;;;;;;;6.60;3.13;;;;;;;;;;6185490;28;20050;-69
2021/05/22 17:35:01;;;;;;;9.65;3.92;;;;;;;;;;6183750;28;20594;-69
2021/05/22 17:38:02;;;;;;;8.32;3.85;;;;;;;;;;6186218;28;20133;-69
2021/05/22 17:41:05;;;;;;;8.55;3.78;;;;;;;;;;6184110;28;20135;-68
2021/05/22 17:44:07;;;;;;;5.43;3.65;;;;;;;;;;6183922;28;20422;-69
2021/05/22 17:47:10;;;;;;;11.18;4.50;;;;;;;;;;6184219;28;20794;-68
2021/05/22 17:50:12;;;;;;;9.13;3.72;;;;;;;;;;6184875;28;20104;-69
2021/05/22 17:53:13;;;;;;;7.40;4.00;;;;;;;;;;6186050;28;20125;-68
2021/05/22 17:56:15;;;;;;;11.30;4.10;;;;;;;;;;6183979;28;20050;-69
2021/05/22 17:59:16;;;;;;;7.20;3.70;;;;;;;;;;6185937;28;20058;-68
2021/05/22 18:02:18;;;;;;;7.85;4.00;;;;;;;;;;6189188;28;20133;-68
2021/05/22 18:05:20;;;;;;;7.97;4.20;;;;;;;;;;6183198;28;20061;-68
2021/05/22 18:08:22;;;;;;;7.65;4.05;;;;;;;;;;6184235;28;20078;-68
2021/05/22 18:11:24;;;;;;;8.07;3.90;;;;;;;;;;6184505;28;20631;-72
2021/05/22 18:14:25;;;;;;;8.80;4.50;;;;;;;;;;6181485;28;20057;-70
2021/05/22 18:17:26;;;;;;;7.38;4.18;;;;;;;;;;6186790;28;20081;-72
2021/05/22 18:20:27;;;;;;;6.68;4.00;;;;;;;;;;6190698;28;20529;-70
2021/05/22 18:23:28;;;;;;;9.18;4.45;;;;;;;;;;6194652;28;20050;-71